createdAt,value
2023-03-06T00:00:19.890Z,99240.75
2023-03-06T00:01:09.082Z,99238.06
2023-03-06T00:01:49.098Z,99235.19
2023-03-06T00:02:53.353Z,99232.91
2023-03-06T00:03:31.786Z,99237.72
2023-03-06T00:04:11.167Z,99234.63
2023-03-06T00:04:50.258Z,99230.88
2023-03-06T00:05:37.059Z,99241.91
2023-03-06T00:06:16.261Z,99236.97
2023-03-06T00:07:03.038Z,99236.53
2023-03-06T00:08:06.986Z,99239.66
2023-03-06T00:09:45.180Z,99234.50
2023-03-06T00:10:48.562Z,99241.50
2023-03-06T00:13:28.825Z,99240.72
2023-03-06T00:14:33.108Z,99246.09
2023-03-06T00:15:51.646Z,99238.59
2023-03-06T00:17:34.166Z,99234.84
2023-03-06T00:18:53.777Z,99237.34
2023-03-06T00:19:37.629Z,99236.25
2023-03-06T00:20:57.356Z,99234.41
2023-03-06T00:22:40.068Z,99235.97
2023-03-06T00:23:58.186Z,99227.22
2023-03-06T00:25:38.904Z,99236.38
2023-03-06T00:26:57.257Z,99230.75
2023-03-06T00:29:00.002Z,99235.75
2023-03-06T00:30:38.961Z,99232.59
2023-03-06T00:31:18.307Z,99227.22
2023-03-06T00:32:00.289Z,99224.53
2023-03-06T00:32:39.597Z,99231.38
2023-03-06T00:33:29.189Z,99236.56
2023-03-06T00:34:33.041Z,99235.09
2023-03-06T00:35:12.856Z,99235.31
2023-03-06T00:35:53.258Z,99229.06
2023-03-06T00:36:32.216Z,99230.94
2023-03-06T00:37:14.169Z,99231.53
2023-03-06T00:38:01.176Z,99237.75
2023-03-06T00:38:40.216Z,99237.09
2023-03-06T00:39:22.297Z,99237.94
2023-03-06T00:40:02.302Z,99235.00
2023-03-06T00:41:47.079Z,99237.09
2023-03-06T00:43:04.373Z,99234.03
2023-03-06T00:43:44.384Z,99226.53
2023-03-06T00:44:24.214Z,99235.66
2023-03-06T00:45:06.719Z,99231.28
2023-03-06T00:46:10.632Z,99230.28
2023-03-06T00:47:52.056Z,99233.34
2023-03-06T00:49:53.305Z,99233.16
2023-03-06T00:51:24.662Z,99232.81
2023-03-06T00:52:05.207Z,99224.09
2023-03-06T00:53:26.266Z,99236.59
2023-03-06T00:54:46.131Z,99236.72
2023-03-06T00:55:25.302Z,99229.03
2023-03-06T00:56:04.342Z,99229.31
2023-03-06T00:56:43.165Z,99231.47
2023-03-06T00:57:25.316Z,99232.44
2023-03-06T00:58:04.226Z,99232.94
2023-03-06T00:58:43.297Z,99231.63
2023-03-06T00:59:30.052Z,99233.97
2023-03-06T01:00:17.320Z,99234.56
2023-03-06T01:00:56.322Z,99228.13
2023-03-06T01:01:38.342Z,99232.41
2023-03-06T01:02:18.610Z,99222.88
2023-03-06T01:02:57.783Z,99221.03
2023-03-06T01:03:40.300Z,99224.94
2023-03-06T01:04:22.834Z,99230.47
2023-03-06T01:05:06.734Z,99225.78
2023-03-06T01:05:46.171Z,99223.47
2023-03-06T01:06:33.435Z,99223.00
2023-03-06T01:07:12.353Z,99218.84
2023-03-06T01:07:55.285Z,99225.59
2023-03-06T01:08:34.795Z,99219.59
2023-03-06T01:09:38.632Z,99218.56
2023-03-06T01:10:27.342Z,99218.47
2023-03-06T01:11:07.239Z,99211.44
2023-03-06T01:12:11.028Z,99213.09
2023-03-06T01:12:58.404Z,99210.16
2023-03-06T01:13:37.230Z,99217.38
2023-03-06T01:14:16.279Z,99217.84
2023-03-06T01:15:34.598Z,99209.31
2023-03-06T01:16:18.913Z,99210.53
2023-03-06T01:17:39.719Z,99223.97
2023-03-06T01:18:19.000Z,99218.97
2023-03-06T01:18:59.734Z,99207.38
2023-03-06T01:20:18.456Z,99205.25
2023-03-06T01:21:37.404Z,99210.59
2023-03-06T01:22:16.909Z,99209.59
2023-03-06T01:22:56.762Z,99204.97
2023-03-06T01:23:37.262Z,99211.91
2023-03-06T01:25:06.800Z,99213.22
2023-03-06T01:25:47.467Z,99199.34
2023-03-06T01:27:08.250Z,99206.38
2023-03-06T01:27:55.155Z,99201.00
2023-03-06T01:28:35.318Z,99195.16
2023-03-06T01:29:15.418Z,99204.06
2023-03-06T01:30:54.950Z,99201.06
2023-03-06T01:33:02.041Z,99198.13
2023-03-06T01:33:42.222Z,99195.06
2023-03-06T01:34:21.825Z,99190.16
2023-03-06T01:35:09.788Z,99189.13
2023-03-06T01:37:04.897Z,99184.31
2023-03-06T01:40:42.431Z,99188.22
2023-03-06T01:42:03.850Z,99191.66
2023-03-06T01:42:53.076Z,99188.59
2023-03-06T01:43:37.949Z,99181.19
2023-03-06T01:44:27.119Z,99185.34
2023-03-06T01:45:29.075Z,99192.94
2023-03-06T01:46:17.023Z,99199.13
2023-03-06T01:47:37.307Z,99183.41
2023-03-06T01:48:21.507Z,99193.59
2023-03-06T01:49:22.320Z,99188.22
2023-03-06T01:51:05.373Z,99190.44
2023-03-06T01:52:55.812Z,99195.06
2023-03-06T01:53:40.104Z,99199.97
2023-03-06T01:56:05.356Z,99185.09
2023-03-06T01:56:43.906Z,99186.75
2023-03-06T01:57:45.186Z,99186.94
2023-03-06T01:59:03.227Z,99191.56
2023-03-06T01:59:44.275Z,99190.53
2023-03-06T02:00:29.264Z,99183.75
2023-03-06T02:01:33.222Z,99194.97
2023-03-06T02:02:11.846Z,99193.59
2023-03-06T02:03:18.977Z,99179.78
2023-03-06T02:04:40.475Z,99184.41
2023-03-06T02:06:09.378Z,99184.22
2023-03-06T02:07:21.287Z,99182.84
2023-03-06T02:08:02.424Z,99185.97
2023-03-06T02:08:42.384Z,99179.41
2023-03-06T02:09:21.191Z,99187.25
2023-03-06T02:10:00.307Z,99173.28
2023-03-06T02:10:42.919Z,99177.84
2023-03-06T02:11:24.964Z,99175.84
2023-03-06T02:12:12.092Z,99179.16
2023-03-06T02:12:52.327Z,99173.59
2023-03-06T02:13:30.885Z,99182.09
2023-03-06T02:14:10.284Z,99173.50
2023-03-06T02:14:50.201Z,99178.66
2023-03-06T02:16:13.282Z,99169.22
2023-03-06T02:17:01.787Z,99174.63
2023-03-06T02:18:05.587Z,99178.81
2023-03-06T02:18:46.778Z,99175.91
2023-03-06T02:19:45.706Z,99174.91
2023-03-06T02:20:48.810Z,99178.22
2023-03-06T02:22:09.007Z,99176.00
2023-03-06T02:22:48.970Z,99171.63
2023-03-06T02:23:27.807Z,99177.84
2023-03-06T02:24:19.029Z,99179.69
2023-03-06T02:25:47.681Z,99173.69
2023-03-06T02:26:29.554Z,99166.63
2023-03-06T02:27:12.516Z,99171.19
2023-03-06T02:28:32.444Z,99174.41
2023-03-06T02:30:11.095Z,99159.66
2023-03-06T02:31:00.279Z,99166.47
2023-03-06T02:31:40.244Z,99171.63
2023-03-06T02:32:19.478Z,99161.34
2023-03-06T02:32:58.969Z,99174.56
2023-03-06T02:33:39.345Z,99165.88
2023-03-06T02:34:28.047Z,99171.72
2023-03-06T02:35:20.431Z,99163.66
2023-03-06T02:36:02.657Z,99164.28
2023-03-06T02:36:52.335Z,99165.94
2023-03-06T02:37:32.208Z,99170.66
2023-03-06T02:38:16.003Z,99160.56
2023-03-06T02:47:45.968Z,99151.81
2023-03-06T02:48:24.637Z,99144.59
2023-03-06T02:49:03.945Z,99145.78
2023-03-06T02:49:42.937Z,99148.88
2023-03-06T02:50:23.275Z,99148.03
2023-03-06T02:51:03.086Z,99141.97
2023-03-06T02:51:41.904Z,99147.25
2023-03-06T02:52:33.814Z,99144.94
2023-03-06T02:53:15.024Z,99145.97
2023-03-06T02:53:54.590Z,99141.75
2023-03-06T02:54:33.610Z,99150.25
2023-03-06T02:55:16.696Z,99141.34
2023-03-06T02:58:12.202Z,99149.56
2023-03-06T02:58:51.667Z,99142.78
2023-03-06T02:59:38.844Z,99147.75
2023-03-06T03:02:55.157Z,99145.91
2023-03-06T03:04:12.996Z,99151.28
2023-03-06T03:04:52.714Z,99144.06
2023-03-06T03:05:32.032Z,99152.13
2023-03-06T03:06:13.981Z,99147.00
2023-03-06T03:07:02.714Z,99145.97
2023-03-06T03:08:06.419Z,99151.75
2023-03-06T03:09:25.632Z,99144.06
2023-03-06T03:10:05.553Z,99142.22
2023-03-06T03:11:36.187Z,99151.56
2023-03-06T03:12:55.598Z,99146.75
2023-03-06T03:13:36.518Z,99153.59
2023-03-06T03:15:02.220Z,99141.63
2023-03-06T03:15:41.463Z,99141.63
2023-03-06T03:16:58.717Z,99142.28
2023-03-06T03:18:02.594Z,99140.69
2023-03-06T03:19:35.617Z,99140.09
2023-03-06T03:20:21.222Z,99140.09
2023-03-06T03:21:09.591Z,99140.31
2023-03-06T03:21:49.717Z,99141.78
2023-03-06T03:22:28.033Z,99139.09
2023-03-06T03:23:06.701Z,99141.75
2023-03-06T03:23:53.782Z,99138.69
2023-03-06T03:25:33.829Z,99136.25
2023-03-06T03:26:19.350Z,99134.84
2023-03-06T03:27:39.737Z,99139.16
2023-03-06T03:28:22.011Z,99137.94
2023-03-06T03:29:00.672Z,99136.09
2023-03-06T03:29:39.493Z,99140.47
2023-03-06T03:30:21.680Z,99130.72
2023-03-06T03:31:25.889Z,99142.94
2023-03-06T03:32:05.754Z,99138.84
2023-03-06T03:33:26.212Z,99129.09
2023-03-06T03:34:44.045Z,99134.69
2023-03-06T03:36:08.322Z,99132.00
2023-03-06T03:36:47.759Z,99127.84
2023-03-06T03:37:28.235Z,99128.03
2023-03-06T03:38:07.667Z,99126.19
2023-03-06T03:38:47.224Z,99125.34
2023-03-06T03:39:26.652Z,99125.16
2023-03-06T03:40:30.564Z,99114.41
2023-03-06T03:42:01.497Z,99106.53
2023-03-06T03:42:42.119Z,99084.78
2023-03-06T03:44:16.178Z,99083.75
2023-03-06T03:45:35.224Z,99088.31
2023-03-06T03:46:14.706Z,99080.88
2023-03-06T03:46:55.012Z,99073.81
2023-03-06T03:47:34.500Z,99072.41
2023-03-06T03:48:14.184Z,99077.78
2023-03-06T03:48:53.774Z,99069.94
2023-03-06T03:49:33.053Z,99068.50
2023-03-06T03:50:12.191Z,99070.34
2023-03-06T03:52:34.035Z,99068.66
2023-03-06T03:53:13.005Z,99065.34
2023-03-06T03:53:51.696Z,99068.06
2023-03-06T03:55:23.843Z,99069.09
2023-03-06T03:56:03.913Z,99073.47
2023-03-06T03:58:00.990Z,99083.38
2023-03-06T04:00:39.798Z,99092.91
2023-03-06T04:01:20.000Z,99083.22
2023-03-06T04:01:59.672Z,99085.66
2023-03-06T04:02:38.712Z,99091.22
2023-03-06T04:03:21.161Z,99089.56
2023-03-06T04:04:01.675Z,99084.19
2023-03-06T04:04:42.256Z,99086.09
2023-03-06T04:05:22.524Z,99089.81
2023-03-06T04:07:20.650Z,99096.22
2023-03-06T04:08:37.898Z,99094.16
2023-03-06T04:09:18.008Z,99087.94
2023-03-06T04:09:58.626Z,99086.31
2023-03-06T04:10:37.544Z,99093.78
2023-03-06T04:11:16.661Z,99081.22
2023-03-06T04:11:55.974Z,99083.84
2023-03-06T04:12:35.845Z,99084.28
2023-03-06T04:13:15.010Z,99096.06
2023-03-06T04:13:55.273Z,99073.09
2023-03-06T04:14:35.896Z,99083.63
2023-03-06T04:15:24.974Z,99091.03
2023-03-06T04:16:05.584Z,99087.53
2023-03-06T04:16:45.987Z,99085.25
2023-03-06T04:18:13.790Z,99099.28
2023-03-06T04:18:54.330Z,99084.44
2023-03-06T04:19:37.320Z,99091.22
2023-03-06T04:20:17.144Z,99085.06
2023-03-06T04:20:56.087Z,99086.78
2023-03-06T04:21:35.895Z,99087.00
2023-03-06T04:22:15.868Z,99088.50
2023-03-06T04:22:55.009Z,99082.69
2023-03-06T04:23:34.111Z,99088.06
2023-03-06T04:24:14.154Z,99085.16
2023-03-06T04:24:53.128Z,99084.75
2023-03-06T04:25:30.954Z,99085.75
2023-03-06T04:26:18.902Z,99079.75
2023-03-06T04:28:48.096Z,99080.81
2023-03-06T04:29:30.042Z,99069.41
2023-03-06T04:31:03.087Z,99073.16
2023-03-06T04:33:30.026Z,99074.41
2023-03-06T04:34:09.903Z,99080.84
2023-03-06T04:34:50.069Z,99078.19
2023-03-06T04:35:32.727Z,99075.50
2023-03-06T04:36:34.702Z,99079.88
2023-03-06T04:37:22.961Z,99080.06
2023-03-06T04:38:02.507Z,99078.19
2023-03-06T04:38:41.556Z,99085.69
2023-03-06T04:39:20.895Z,99080.09
2023-03-06T04:40:00.005Z,99075.56
2023-03-06T04:40:39.144Z,99082.19
2023-03-06T04:41:17.999Z,99087.00
2023-03-06T04:41:58.094Z,99081.41
2023-03-06T04:42:37.978Z,99078.72
2023-03-06T04:43:24.927Z,99072.91
2023-03-06T04:44:13.797Z,99077.03
2023-03-06T04:45:44.203Z,99076.19
2023-03-06T04:47:43.561Z,99072.25
2023-03-06T04:48:22.992Z,99067.53
2023-03-06T04:49:02.514Z,99073.09
2023-03-06T04:49:42.154Z,99067.72
2023-03-06T04:51:07.782Z,99070.84
2023-03-06T04:51:48.036Z,99067.09
2023-03-06T04:52:34.305Z,99067.53
2023-03-06T04:53:22.742Z,99068.56
2023-03-06T04:54:05.643Z,99065.25
2023-03-06T04:54:46.244Z,99060.28
2023-03-06T04:56:06.940Z,99065.44
2023-03-06T04:56:46.912Z,99064.81
2023-03-06T04:57:28.938Z,99069.78
2023-03-06T04:58:07.995Z,99060.66
2023-03-06T04:58:47.271Z,99062.72
2023-03-06T04:59:26.975Z,99056.13
2023-03-06T05:00:13.188Z,99051.34
2023-03-06T05:00:55.123Z,99049.88
2023-03-06T05:01:34.212Z,99051.75
2023-03-06T05:02:25.843Z,99043.44
2023-03-06T05:03:08.956Z,99047.59
2023-03-06T05:03:51.002Z,99040.16
2023-03-06T05:04:29.907Z,99047.59
2023-03-06T05:05:17.516Z,99049.50
2023-03-06T05:06:00.159Z,99049.91
2023-03-06T05:06:39.054Z,99041.03
2023-03-06T05:07:20.936Z,99038.75
2023-03-06T05:08:00.105Z,99035.03
2023-03-06T05:08:39.142Z,99036.84
2023-03-06T05:09:30.819Z,99039.16
2023-03-06T05:10:13.637Z,99038.09
2023-03-06T05:10:57.980Z,99043.28
2023-03-06T05:11:38.471Z,99041.66
2023-03-06T05:12:42.981Z,99044.59
2023-03-06T05:14:09.891Z,99055.38
2023-03-06T05:14:48.662Z,99051.66
2023-03-06T05:15:30.978Z,99056.66
2023-03-06T05:16:09.975Z,99050.25
2023-03-06T05:16:49.092Z,99051.72
2023-03-06T05:17:31.695Z,99051.88
2023-03-06T05:18:10.899Z,99060.81
2023-03-06T05:18:50.753Z,99053.75
2023-03-06T05:19:37.831Z,99053.75
2023-03-06T05:20:17.435Z,99054.34
2023-03-06T05:22:36.139Z,99053.38
2023-03-06T05:23:18.936Z,99046.97
2023-03-06T05:24:00.965Z,99048.22
2023-03-06T05:24:40.202Z,99046.13
2023-03-06T05:25:28.874Z,99049.06
2023-03-06T05:26:32.553Z,99045.72
2023-03-06T05:27:11.662Z,99050.91
2023-03-06T05:27:51.226Z,99048.66
2023-03-06T05:28:31.250Z,99046.34
2023-03-06T05:29:11.427Z,99055.88
2023-03-06T05:29:50.946Z,99056.72
2023-03-06T05:30:54.497Z,99054.88
2023-03-06T05:31:34.761Z,99048.66
2023-03-06T05:33:00.248Z,99057.13
2023-03-06T05:33:40.092Z,99058.19
2023-03-06T05:34:19.060Z,99059.00
2023-03-06T05:34:59.047Z,99055.06
2023-03-06T05:35:49.674Z,99056.91
2023-03-06T05:36:30.553Z,99051.09
2023-03-06T05:37:10.749Z,99050.91
2023-03-06T05:37:50.946Z,99055.44
2023-03-06T05:38:29.189Z,99049.00
2023-03-06T05:39:08.216Z,99051.72
2023-03-06T05:39:47.378Z,99054.00
2023-03-06T05:40:31.408Z,99048.63
2023-03-06T05:41:51.262Z,99050.06
2023-03-06T05:42:32.524Z,99054.03
2023-03-06T05:43:39.763Z,99053.63
2023-03-06T05:44:20.188Z,99055.72
2023-03-06T05:44:58.767Z,99050.72
2023-03-06T05:45:39.274Z,99047.59
2023-03-06T05:46:17.994Z,99054.63
2023-03-06T05:46:57.137Z,99054.63
2023-03-06T05:47:45.123Z,99054.63
2023-03-06T05:48:24.937Z,99047.38
2023-03-06T05:49:04.364Z,99052.94
2023-03-06T05:49:47.068Z,99050.69
2023-03-06T05:50:27.776Z,99057.78
2023-03-06T05:51:09.665Z,99056.53
2023-03-06T05:51:50.215Z,99057.38
2023-03-06T05:52:29.640Z,99060.69
2023-03-06T05:53:08.044Z,99054.88
2023-03-06T05:55:12.555Z,99059.03
2023-03-06T05:55:59.041Z,99064.66
2023-03-06T05:57:03.067Z,99061.94
2023-03-06T05:58:33.653Z,99059.47
2023-03-06T05:59:16.247Z,99055.97
2023-03-06T06:00:38.048Z,99065.69
2023-03-06T06:01:19.378Z,99061.38
2023-03-06T06:03:16.797Z,99049.34
2023-03-06T06:03:56.002Z,99055.13
2023-03-06T06:04:38.000Z,99054.97
2023-03-06T06:05:56.136Z,99059.56
2023-03-06T06:07:16.782Z,99059.53
2023-03-06T06:08:34.117Z,99051.28
2023-03-06T06:09:22.670Z,99053.56
2023-03-06T06:10:03.825Z,99051.72
2023-03-06T06:10:43.092Z,99059.75
2023-03-06T06:11:22.097Z,99052.94
2023-03-06T06:12:04.368Z,99059.16
2023-03-06T06:12:51.276Z,99052.09
2023-03-06T06:13:41.125Z,99042.34
2023-03-06T06:14:29.504Z,99047.53
2023-03-06T06:15:18.582Z,99049.81
2023-03-06T06:16:22.156Z,99049.81
2023-03-06T06:17:12.650Z,99047.09
2023-03-06T06:19:18.755Z,99045.88
2023-03-06T06:19:57.792Z,99051.88
2023-03-06T06:20:37.689Z,99057.25
2023-03-06T06:23:03.133Z,99046.72
2023-03-06T06:24:27.073Z,99050.06
2023-03-06T06:26:24.099Z,99053.31
2023-03-06T06:28:06.753Z,99045.06
2023-03-06T06:29:13.840Z,99041.53
2023-03-06T06:30:08.348Z,99042.53
2023-03-06T06:31:26.292Z,99046.28
2023-03-06T06:32:33.894Z,99043.19
2023-03-06T06:34:28.429Z,99047.53
2023-03-06T06:35:35.334Z,99043.63
2023-03-06T06:37:02.021Z,99040.91
2023-03-06T06:38:06.575Z,99043.00
2023-03-06T06:42:26.126Z,99036.38
2023-03-06T06:42:58.566Z,99039.72
2023-03-06T06:43:43.725Z,99034.72
2023-03-06T06:45:05.712Z,99037.00
2023-03-06T06:45:49.558Z,99031.00
2023-03-06T06:47:21.915Z,99034.69
2023-03-06T06:48:38.758Z,99031.81
2023-03-06T06:49:30.077Z,99035.53
2023-03-06T06:50:11.229Z,99034.09
2023-03-06T06:51:14.402Z,99026.41
2023-03-06T06:54:04.632Z,99030.13
2023-03-06T06:55:09.966Z,99024.75
2023-03-06T06:57:22.063Z,99029.91
2023-03-06T06:58:26.318Z,99029.69
2023-03-06T06:59:19.081Z,99024.09
2023-03-06T07:00:01.050Z,99030.53
2023-03-06T07:00:41.068Z,99037.16
2023-03-06T07:01:44.926Z,99034.88
2023-03-06T07:03:49.753Z,99047.72
2023-03-06T07:06:09.312Z,99043.97
2023-03-06T07:07:12.797Z,99041.88
2023-03-06T07:08:33.631Z,99051.22
2023-03-06T07:09:39.921Z,99051.66
2023-03-06T07:11:21.961Z,99052.47
2023-03-06T07:12:01.632Z,99053.31
2023-03-06T07:13:05.860Z,99053.31
2023-03-06T07:15:36.469Z,99052.53
2023-03-06T07:16:20.477Z,99047.09
2023-03-06T07:17:34.702Z,99051.25
2023-03-06T07:19:44.929Z,99054.97
2023-03-06T07:20:17.866Z,99064.91
2023-03-06T07:20:49.636Z,99055.34
2023-03-06T07:21:22.494Z,99058.66
2023-03-06T07:21:55.013Z,99058.47
2023-03-06T07:22:27.541Z,99062.84
2023-03-06T07:23:16.944Z,99058.88
2023-03-06T07:25:55.955Z,99058.25
2023-03-06T07:27:16.088Z,99056.81
2023-03-06T07:28:03.051Z,99060.53
2023-03-06T07:29:10.844Z,99059.09
2023-03-06T07:29:50.335Z,99053.09
2023-03-06T07:30:56.874Z,99051.63
2023-03-06T07:31:50.800Z,99051.00
2023-03-06T07:32:34.580Z,99050.97
2023-03-06T07:33:27.000Z,99060.31
2023-03-06T07:34:19.816Z,99050.53
2023-03-06T07:35:20.014Z,99041.63
2023-03-06T07:36:35.174Z,99042.09
2023-03-06T07:37:40.034Z,99040.00
2023-03-06T07:43:52.684Z,99047.84
2023-03-06T07:44:56.748Z,99042.19
2023-03-06T07:46:37.236Z,99022.53
2023-03-06T07:48:30.729Z,99026.25
2023-03-06T07:50:14.665Z,99033.22
2023-03-06T07:51:49.085Z,99032.16
2023-03-06T07:52:28.087Z,99026.50
2023-03-06T07:53:32.026Z,99035.03
2023-03-06T07:55:54.031Z,99030.06
2023-03-06T07:57:37.999Z,99028.44
2023-03-06T07:58:57.092Z,99020.06
2023-03-06T08:00:29.080Z,99022.91
2023-03-06T08:01:14.284Z,99014.66
2023-03-06T08:01:55.941Z,99018.56
2023-03-06T08:03:38.542Z,99018.06
2023-03-06T08:05:00.072Z,99017.78
2023-03-06T08:06:32.969Z,99015.03
2023-03-06T08:07:13.595Z,99019.00
2023-03-06T08:08:33.867Z,99012.44
2023-03-06T08:09:13.108Z,99005.53
2023-03-06T08:09:52.291Z,99015.19
2023-03-06T08:10:35.493Z,99008.94
2023-03-06T08:11:16.865Z,99010.81
2023-03-06T08:12:20.664Z,99014.91
2023-03-06T08:13:24.145Z,99014.53
2023-03-06T08:14:27.444Z,99014.28
2023-03-06T08:16:01.171Z,99016.25
2023-03-06T08:16:40.131Z,99021.53
2023-03-06T08:17:22.048Z,99023.38
2023-03-06T08:18:02.605Z,99021.97
2023-03-06T08:18:46.824Z,99021.91
2023-03-06T08:20:32.224Z,99025.31
2023-03-06T08:21:24.900Z,99025.53
2023-03-06T08:22:06.086Z,99026.38
2023-03-06T08:22:46.075Z,99023.97
2023-03-06T08:23:50.092Z,99029.00
2023-03-06T08:25:11.822Z,99028.78
2023-03-06T08:26:42.334Z,99039.47
2023-03-06T08:27:24.306Z,99020.44
2023-03-06T08:28:03.223Z,99029.31
2023-03-06T08:29:08.264Z,99028.94
2023-03-06T08:30:27.038Z,99029.31
2023-03-06T08:31:19.789Z,99026.44
2023-03-06T08:32:00.310Z,99021.88
2023-03-06T08:32:42.388Z,99025.47
2023-03-06T08:33:25.609Z,99024.09
2023-03-06T08:34:09.756Z,99021.94
2023-03-06T08:34:49.064Z,99023.69
2023-03-06T08:35:30.429Z,99017.03
2023-03-06T08:36:11.227Z,99021.09
2023-03-06T08:38:09.104Z,99013.44
2023-03-06T08:38:47.985Z,99015.53
2023-03-06T08:39:28.226Z,99014.06
2023-03-06T08:40:34.624Z,99012.06
2023-03-06T08:44:47.504Z,99014.03
2023-03-06T08:45:51.790Z,99014.16
2023-03-06T08:46:34.123Z,99008.75
2023-03-06T08:47:54.657Z,99018.47
2023-03-06T08:48:44.248Z,99015.84
2023-03-06T08:49:48.134Z,99015.88
2023-03-06T08:52:22.706Z,99016.03
2023-03-06T08:53:12.322Z,99015.72
2023-03-06T08:55:12.918Z,99014.50
2023-03-06T08:55:56.136Z,99006.25
2023-03-06T08:56:35.303Z,99010.03
2023-03-06T08:57:15.434Z,99006.06
2023-03-06T08:57:58.818Z,99006.72
2023-03-06T08:59:03.961Z,99008.41
2023-03-06T09:00:23.663Z,99007.25
2023-03-06T09:01:27.395Z,99003.94
2023-03-06T09:02:15.683Z,99005.78
2023-03-06T09:04:57.263Z,99005.91
2023-03-06T09:06:29.689Z,99004.97
2023-03-06T09:08:01.155Z,99014.63
2023-03-06T09:09:20.428Z,99013.00
2023-03-06T09:10:33.083Z,99001.16
2023-03-06T09:11:14.692Z,99009.31
2023-03-06T09:11:57.258Z,99006.28
2023-03-06T09:12:49.856Z,99002.94
2023-03-06T09:13:32.346Z,99009.19
2023-03-06T09:14:12.093Z,99009.94
2023-03-06T09:14:52.737Z,99004.50
2023-03-06T09:15:32.478Z,99009.31
2023-03-06T09:16:36.524Z,99003.88
2023-03-06T09:18:18.518Z,99011.81
2023-03-06T09:19:36.148Z,99002.56
2023-03-06T09:20:15.587Z,99003.56
2023-03-06T09:20:56.746Z,98993.84
2023-03-06T09:21:36.768Z,99001.31
2023-03-06T09:22:44.594Z,99005.66
2023-03-06T09:24:03.480Z,98999.06
2023-03-06T09:24:51.195Z,99003.41
2023-03-06T09:25:56.318Z,98997.75
2023-03-06T09:28:23.141Z,99004.47
2023-03-06T09:29:27.055Z,98998.19
2023-03-06T09:30:08.155Z,98997.72
2023-03-06T09:30:48.934Z,98997.03
2023-03-06T09:31:28.471Z,98995.50
2023-03-06T09:33:38.670Z,98992.31
2023-03-06T09:34:42.813Z,98991.13
2023-03-06T09:37:23.248Z,98995.41
2023-03-06T09:38:10.999Z,98981.66
2023-03-06T09:41:42.042Z,98981.22
2023-03-06T09:42:46.169Z,98985.66
2023-03-06T09:43:32.884Z,98982.09
2023-03-06T09:44:45.666Z,98978.06
2023-03-06T09:47:15.331Z,98989.75
2023-03-06T09:48:23.606Z,98990.31
2023-03-06T09:50:45.763Z,98980.41
2023-03-06T09:51:46.972Z,98970.09
2023-03-06T09:53:00.182Z,98972.47
2023-03-06T09:54:09.057Z,98976.66
2023-03-06T09:54:57.433Z,98969.47
2023-03-06T09:55:40.396Z,98971.44
2023-03-06T09:56:25.084Z,98979.25
2023-03-06T09:57:35.698Z,98976.03
2023-03-06T09:58:15.686Z,98964.72
2023-03-06T09:59:13.409Z,98967.88
2023-03-06T09:59:58.809Z,98968.19
2023-03-06T10:00:53.510Z,98970.28
2023-03-06T10:01:42.454Z,98954.44
2023-03-06T10:02:57.186Z,98965.41
2023-03-06T10:04:46.419Z,98959.78
2023-03-06T10:05:49.834Z,98958.09
2023-03-06T10:06:50.423Z,98960.94
2023-03-06T10:09:22.792Z,98945.50
2023-03-06T10:10:02.713Z,98953.38
2023-03-06T10:11:08.868Z,98955.59
2023-03-06T10:12:41.265Z,98955.59
2023-03-06T10:14:58.761Z,98955.47
2023-03-06T10:15:48.356Z,98945.63
2023-03-06T10:16:41.706Z,98956.03
2023-03-06T10:17:23.943Z,98956.28
2023-03-06T10:18:13.630Z,98956.44
2023-03-06T10:19:01.340Z,98954.63
2023-03-06T10:19:43.150Z,98953.38
2023-03-06T10:20:48.877Z,98964.13
2023-03-06T10:21:32.788Z,98959.16
2023-03-06T10:22:38.862Z,98962.03
2023-03-06T10:23:58.188Z,98961.25
2023-03-06T10:27:13.504Z,98953.13
2023-03-06T10:28:16.942Z,98952.06
2023-03-06T10:29:36.732Z,98946.25
2023-03-06T10:30:57.459Z,98952.94
2023-03-06T10:32:11.123Z,98949.19
2023-03-06T10:32:55.768Z,98947.63
2023-03-06T10:33:57.663Z,98948.63
2023-03-06T10:34:40.433Z,98940.78
2023-03-06T10:35:30.666Z,98943.06
2023-03-06T10:36:32.073Z,98934.06
2023-03-06T10:37:38.820Z,98928.44
2023-03-06T10:38:41.648Z,98937.03
2023-03-06T10:39:49.487Z,98929.25
2023-03-06T10:41:11.458Z,98924.28
2023-03-06T10:42:15.700Z,98924.16
2023-03-06T10:43:45.610Z,98919.09
2023-03-06T10:45:06.627Z,98913.81
2023-03-06T10:48:18.335Z,98919.31
2023-03-06T10:49:21.014Z,98918.09
2023-03-06T10:50:03.076Z,98916.19
2023-03-06T10:50:46.276Z,98918.41
2023-03-06T10:51:30.270Z,98916.63
2023-03-06T10:52:26.237Z,98911.34
2023-03-06T10:53:26.865Z,98915.28
2023-03-06T10:55:34.833Z,98918.44
2023-03-06T11:01:42.307Z,98908.66
2023-03-06T11:02:38.711Z,98913.31
2023-03-06T11:03:33.285Z,98913.16
2023-03-06T11:04:21.045Z,98912.03
2023-03-06T11:05:25.066Z,98918.16
2023-03-06T11:06:49.475Z,98909.41
2023-03-06T11:07:33.829Z,98911.28
2023-03-06T11:11:02.717Z,98905.34
2023-03-06T11:11:43.120Z,98911.66
2023-03-06T11:13:27.997Z,98911.16
2023-03-06T11:15:10.524Z,98913.53
2023-03-06T11:17:29.922Z,98917.59
2023-03-06T11:18:25.997Z,98913.63
2023-03-06T11:19:21.059Z,98920.84
2023-03-06T11:20:50.123Z,98909.69
2023-03-06T11:23:35.286Z,98911.38
2023-03-06T11:26:04.930Z,98919.78
2023-03-06T11:27:02.782Z,98921.56
2023-03-06T11:27:47.244Z,98922.53
2023-03-06T11:30:58.863Z,98932.53
2023-03-06T11:32:43.550Z,98918.25
2023-03-06T11:33:45.664Z,98907.22
2023-03-06T11:35:22.448Z,98899.19
2023-03-06T11:36:31.415Z,98890.81
2023-03-06T11:37:50.502Z,98885.59
2023-03-06T11:38:59.641Z,98879.75
2023-03-06T11:40:39.856Z,98865.06
2023-03-06T11:41:52.509Z,98862.84
2023-03-06T11:43:37.096Z,98854.94
2023-03-06T11:45:26.328Z,98836.69
2023-03-06T11:46:20.422Z,98834.53
2023-03-06T11:47:15.676Z,98841.72
2023-03-06T11:48:03.468Z,98836.88
2023-03-06T11:50:42.536Z,98840.25
2023-03-06T11:51:21.739Z,98847.72
2023-03-06T11:52:23.972Z,98842.97
2023-03-06T11:54:33.801Z,98835.97
2023-03-06T11:55:40.658Z,98838.34
2023-03-06T11:57:30.351Z,98837.03
2023-03-06T11:58:27.202Z,98835.91
2023-03-06T11:59:30.244Z,98834.28
2023-03-06T12:00:28.709Z,98836.03
2023-03-06T12:01:24.285Z,98835.28
2023-03-06T12:02:57.365Z,98833.06
2023-03-06T12:03:51.428Z,98829.66
2023-03-06T12:05:12.637Z,98820.25
2023-03-06T12:07:16.939Z,98829.84
2023-03-06T12:10:14.476Z,98820.25
2023-03-06T12:12:07.398Z,98819.28
2023-03-06T12:13:16.860Z,98821.59
2023-03-06T12:13:55.879Z,98814.06
2023-03-06T12:15:18.803Z,98817.81
2023-03-06T12:16:42.362Z,98809.66
2023-03-06T12:17:50.447Z,98804.56
2023-03-06T12:20:14.984Z,98811.78
2023-03-06T12:21:06.238Z,98808.50
2023-03-06T12:22:02.317Z,98809.88
2023-03-06T12:24:25.921Z,98804.03
2023-03-06T12:25:44.733Z,98813.13
2023-03-06T12:27:01.160Z,98805.53
2023-03-06T12:29:09.605Z,98801.56
2023-03-06T12:31:43.161Z,98800.53
2023-03-06T12:32:35.346Z,98799.69
2023-03-06T12:33:58.992Z,98796.28
2023-03-06T12:34:39.605Z,98797.38
2023-03-06T12:35:46.337Z,98800.09
2023-03-06T12:36:52.739Z,98791.03
2023-03-06T12:39:52.309Z,98795.50
2023-03-06T12:41:03.116Z,98794.81
2023-03-06T12:42:23.442Z,98789.94
2023-03-06T12:43:57.015Z,98796.72
2023-03-06T12:44:36.746Z,98797.63
2023-03-06T12:45:49.078Z,98799.59
2023-03-06T12:47:48.197Z,98805.69
2023-03-06T12:48:32.747Z,98791.59
2023-03-06T12:49:31.844Z,98803.78